Time;durP1;ratioP1;P1;durP2;ratioP2;P2;SDS_P1;SDS_P2;PMS_P1;PMS_P2;Temp;Humidity;BMP_temperature;BMP_pressure;BME280_temperature;BME280_humidity;BME280_pressure;Samples;Min_cycle;Max_cycle;Signal;HPM_P1;HPM_P2
2023/07/09 00:00:01;;;;;;;1.60;1.50;;;;;;;;;;5031294;28;20052;-64
2023/07/09 00:02:28;;;;;;;1.75;1.65;;;;;;;;;;5029764;28;20048;-64
2023/07/09 00:04:54;;;;;;;1.73;1.63;;;;;;;;;;5034775;28;20090;-64
2023/07/09 00:07:20;;;;;;;1.70;1.60;;;;;;;;;;5030592;28;20045;-64
2023/07/09 00:09:46;;;;;;;1.85;1.75;;;;;;;;;;5031230;28;20136;-64
2023/07/09 00:12:13;;;;;;;1.70;1.60;;;;;;;;;;5029558;28;20401;-64
2023/07/09 00:14:39;;;;;;;2.03;1.83;;;;;;;;;;5033395;28;20133;-64
2023/07/09 00:17:26;;;;;;;1.95;1.75;;;;;;;;;;5032917;28;20569;-64
2023/07/09 00:19:52;;;;;;;2.75;1.50;;;;;;;;;;5039535;28;20048;-64
2023/07/09 00:22:19;;;;;;;1.90;1.80;;;;;;;;;;5032712;28;20041;-64
2023/07/09 00:24:45;;;;;;;1.40;1.30;;;;;;;;;;5038558;28;20064;-64
2023/07/09 00:27:12;;;;;;;1.75;1.65;;;;;;;;;;5038426;28;20084;-64
2023/07/09 00:29:38;;;;;;;1.20;1.10;;;;;;;;;;5040714;28;20037;-64
2023/07/09 00:32:08;;;;;;;1.70;1.60;;;;;;;;;;5034604;28;20057;-64
2023/07/09 00:34:34;;;;;;;1.77;1.48;;;;;;;;;;5034398;28;20164;-64
2023/07/09 00:37:01;;;;;;;1.42;1.33;;;;;;;;;;5036554;28;20135;-64
2023/07/09 00:39:26;;;;;;;1.73;1.63;;;;;;;;;;5034786;28;20607;-64
2023/07/09 00:41:52;;;;;;;1.60;1.50;;;;;;;;;;5039462;28;20124;-64
2023/07/09 00:44:37;;;;;;;2.08;1.50;;;;;;;;;;5042326;28;20052;-64
2023/07/09 00:47:03;;;;;;;1.30;1.20;;;;;;;;;;5037883;28;20420;-64
2023/07/09 00:49:46;;;;;;;1.38;1.27;;;;;;;;;;5036831;28;20468;-64
2023/07/09 00:52:27;;;;;;;1.60;1.50;;;;;;;;;;5035686;28;20052;-64
2023/07/09 00:54:54;;;;;;;1.75;1.65;;;;;;;;;;5035186;28;20745;-64
2023/07/09 00:57:24;;;;;;;1.70;1.60;;;;;;;;;;5036391;28;20045;-64
2023/07/09 01:00:01;;;;;;;1.60;1.50;;;;;;;;;;5036856;28;20053;-64
2023/07/09 01:02:29;;;;;;;1.73;1.63;;;;;;;;;;5033874;28;20485;-64
2023/07/09 01:05:00;;;;;;;2.13;1.42;;;;;;;;;;5038906;28;20049;-64
2023/07/09 01:07:26;;;;;;;1.60;1.50;;;;;;;;;;5032928;28;20049;-64
2023/07/09 01:09:53;;;;;;;1.60;1.50;;;;;;;;;;5037884;28;20037;-64
2023/07/09 01:12:19;;;;;;;1.65;1.55;;;;;;;;;;5035643;28;20591;-64
2023/07/09 01:14:48;;;;;;;1.25;1.15;;;;;;;;;;5040175;28;20053;-64
2023/07/09 01:17:15;;;;;;;1.88;1.77;;;;;;;;;;5038541;28;20124;-64
2023/07/09 01:19:45;;;;;;;1.35;1.25;;;;;;;;;;5037919;28;20485;-64
2023/07/09 01:22:12;;;;;;;1.30;1.20;;;;;;;;;;5034162;28;20049;-64
2023/07/09 01:24:48;;;;;;;1.25;1.17;;;;;;;;;;5040977;28;20438;-64
2023/07/09 01:27:14;;;;;;;1.60;1.50;;;;;;;;;;5048673;28;20574;-64
2023/07/09 01:29:40;;;;;;;1.35;1.25;;;;;;;;;;5036902;28;20037;-64
2023/07/09 01:32:06;;;;;;;1.58;1.48;;;;;;;;;;5036252;28;20103;-64
2023/07/09 01:34:32;;;;;;;1.80;1.65;;;;;;;;;;5040376;28;20401;-64
2023/07/09 01:36:59;;;;;;;1.73;1.63;;;;;;;;;;5034863;28;20052;-64
2023/07/09 01:39:27;;;;;;;1.80;1.70;;;;;;;;;;5032683;28;20040;-64
2023/07/09 01:41:53;;;;;;;1.98;1.88;;;;;;;;;;5035852;28;20509;-64
2023/07/09 01:44:19;;;;;;;2.25;2.05;;;;;;;;;;5037678;28;20049;-64
2023/07/09 01:46:45;;;;;;;1.65;1.55;;;;;;;;;;5036962;28;20435;-64
2023/07/09 01:49:12;;;;;;;2.38;2.13;;;;;;;;;;5032118;28;20053;-64
2023/07/09 01:51:39;;;;;;;1.90;1.70;;;;;;;;;;5039369;28;20041;-64
2023/07/09 01:54:05;;;;;;;1.83;1.73;;;;;;;;;;5039334;28;20042;-63
2023/07/09 01:56:31;;;;;;;1.92;1.83;;;;;;;;;;5036150;28;20041;-63
2023/07/09 01:59:01;;;;;;;2.05;1.85;;;;;;;;;;5038251;28;20047;-63
2023/07/09 02:01:28;;;;;;;1.73;1.63;;;;;;;;;;5034796;28;20861;-63
2023/07/09 02:03:54;;;;;;;1.70;1.60;;;;;;;;;;5035539;28;20501;-64
2023/07/09 02:06:20;;;;;;;2.10;1.90;;;;;;;;;;5035892;28;20037;-64
2023/07/09 02:08:46;;;;;;;1.90;1.80;;;;;;;;;;5035903;28;20394;-64
2023/07/09 02:11:12;;;;;;;1.92;1.83;;;;;;;;;;4999241;28;1099482;-64
2023/07/09 02:13:38;;;;;;;2.05;1.85;;;;;;;;;;5031610;28;20050;-64
2023/07/09 02:16:04;;;;;;;1.75;1.65;;;;;;;;;;5038446;28;20052;-64
2023/07/09 02:18:30;;;;;;;2.00;1.90;;;;;;;;;;5034363;28;20040;-64
2023/07/09 02:20:56;;;;;;;1.60;1.50;;;;;;;;;;5033245;28;20045;-64
2023/07/09 02:23:27;;;;;;;1.95;1.83;;;;;;;;;;5030679;28;20402;-64
2023/07/09 02:25:53;;;;;;;1.95;1.80;;;;;;;;;;5031250;28;20048;-64
2023/07/09 02:28:19;;;;;;;1.73;1.50;;;;;;;;;;5033407;28;20742;-64
2023/07/09 02:30:45;;;;;;;1.50;1.40;;;;;;;;;;5037577;28;20064;-64
2023/07/09 02:33:11;;;;;;;1.70;1.60;;;;;;;;;;5035516;28;20041;-64
2023/07/09 02:35:37;;;;;;;1.73;1.63;;;;;;;;;;5031391;28;20041;-64
2023/07/09 02:38:04;;;;;;;1.48;1.38;;;;;;;;;;5036969;28;20037;-64
2023/07/09 02:40:30;;;;;;;1.65;1.55;;;;;;;;;;5032395;28;20045;-64
2023/07/09 02:42:56;;;;;;;1.35;1.25;;;;;;;;;;5039060;28;20111;-63
2023/07/09 02:45:22;;;;;;;1.35;1.20;;;;;;;;;;5037619;28;20044;-63
2023/07/09 02:47:48;;;;;;;1.63;1.42;;;;;;;;;;5036373;28;20052;-63
2023/07/09 02:50:14;;;;;;;1.83;1.67;;;;;;;;;;5034568;28;20052;-63
2023/07/09 02:52:42;;;;;;;1.80;1.30;;;;;;;;;;5036037;28;20077;-63
2023/07/09 02:55:08;;;;;;;1.30;1.20;;;;;;;;;;5030871;28;20069;-63
2023/07/09 02:57:34;;;;;;;2.05;1.58;;;;;;;;;;5038985;28;20489;-63
2023/07/09 03:00:06;;;;;;;1.90;1.70;;;;;;;;;;5035457;28;20220;-63
2023/07/09 03:02:32;;;;;;;1.80;1.48;;;;;;;;;;5032624;28;20071;-63
2023/07/09 03:04:58;;;;;;;1.50;1.40;;;;;;;;;;5036967;28;20037;-63
2023/07/09 03:07:24;;;;;;;1.25;1.15;;;;;;;;;;5033916;28;20044;-63
2023/07/09 03:09:50;;;;;;;1.67;1.50;;;;;;;;;;5032365;28;20099;-63
2023/07/09 03:12:16;;;;;;;1.70;1.60;;;;;;;;;;5034330;28;20513;-63
2023/07/09 03:14:42;;;;;;;1.50;1.35;;;;;;;;;;5035407;28;20040;-63
2023/07/09 03:17:08;;;;;;;1.48;1.38;;;;;;;;;;5035478;28;20037;-63
2023/07/09 03:19:34;;;;;;;1.20;1.10;;;;;;;;;;5035860;28;20417;-63
2023/07/09 03:22:00;;;;;;;1.50;1.23;;;;;;;;;;5035460;28;20056;-63
2023/07/09 03:24:26;;;;;;;1.40;1.30;;;;;;;;;;5035449;28;20060;-63
2023/07/09 03:26:52;;;;;;;1.58;1.48;;;;;;;;;;5036480;28;20071;-63
2023/07/09 03:29:18;;;;;;;1.45;1.35;;;;;;;;;;5034543;28;20489;-63
2023/07/09 03:31:44;;;;;;;1.70;1.60;;;;;;;;;;5035049;28;20045;-63
2023/07/09 03:34:10;;;;;;;1.98;1.85;;;;;;;;;;5035595;28;20493;-63
2023/07/09 03:36:37;;;;;;;2.33;1.67;;;;;;;;;;5033435;28;20521;-63
2023/07/09 03:39:03;;;;;;;2.75;1.77;;;;;;;;;;5034750;28;20076;-63
2023/07/09 03:41:29;;;;;;;1.73;1.35;;;;;;;;;;5035839;28;20041;-63
2023/07/09 03:43:55;;;;;;;1.88;1.73;;;;;;;;;;5035590;28;20045;-64
2023/07/09 03:46:21;;;;;;;1.35;1.25;;;;;;;;;;5034352;28;20048;-64
2023/07/09 03:48:49;;;;;;;1.42;1.33;;;;;;;;;;5034146;28;20664;-63
2023/07/09 03:51:15;;;;;;;1.10;1.10;;;;;;;;;;5036322;28;20045;-63
2023/07/09 03:53:41;;;;;;;1.33;1.23;;;;;;;;;;5033946;28;20052;-63
2023/07/09 03:56:07;;;;;;;1.42;1.33;;;;;;;;;;5032619;28;20076;-63
2023/07/09 03:58:33;;;;;;;1.50;1.40;;;;;;;;;;5035715;28;20553;-63
2023/07/09 04:00:59;;;;;;;1.70;1.60;;;;;;;;;;5034203;28;20128;-63
2023/07/09 04:03:25;;;;;;;1.67;1.58;;;;;;;;;;5034004;28;20040;-63
2023/07/09 04:05:52;;;;;;;1.67;1.50;;;;;;;;;;5033330;28;20394;-63
2023/07/09 04:08:18;;;;;;;1.77;1.67;;;;;;;;;;5034365;28;20046;-63
2023/07/09 04:10:44;;;;;;;1.77;1.67;;;;;;;;;;5033318;28;20067;-63
2023/07/09 04:13:10;;;;;;;2.00;1.90;;;;;;;;;;5039091;28;20052;-63
2023/07/09 04:15:36;;;;;;;1.55;1.45;;;;;;;;;;5030664;28;20052;-63
2023/07/09 04:18:02;;;;;;;1.70;1.60;;;;;;;;;;5039170;28;20041;-63
2023/07/09 04:20:28;;;;;;;1.83;1.70;;;;;;;;;;5032645;28;20055;-63
2023/07/09 04:22:54;;;;;;;1.60;1.50;;;;;;;;;;5033132;28;20037;-64
2023/07/09 04:25:20;;;;;;;1.48;1.38;;;;;;;;;;5035882;28;20095;-64
2023/07/09 04:27:46;;;;;;;1.70;1.60;;;;;;;;;;5033551;28;20055;-63
2023/07/09 04:30:14;;;;;;;1.92;1.65;;;;;;;;;;5038711;28;20048;-63
2023/07/09 04:32:43;;;;;;;1.92;1.70;;;;;;;;;;5031775;28;20124;-63
2023/07/09 04:35:11;;;;;;;1.75;1.63;;;;;;;;;;5034011;28;20045;-63
2023/07/09 04:37:37;;;;;;;2.88;1.70;;;;;;;;;;5035419;28;20099;-63
2023/07/09 04:40:06;;;;;;;1.92;1.83;;;;;;;;;;5031025;28;20044;-63
2023/07/09 04:42:32;;;;;;;1.60;1.50;;;;;;;;;;5033354;28;20056;-63
2023/07/09 04:44:58;;;;;;;1.45;1.35;;;;;;;;;;5030816;28;20049;-63
2023/07/09 04:47:25;;;;;;;1.67;1.58;;;;;;;;;;5032979;28;20476;-63
2023/07/09 04:49:51;;;;;;;1.65;1.55;;;;;;;;;;5034726;28;20098;-63
2023/07/09 04:52:17;;;;;;;3.88;2.42;;;;;;;;;;5031353;28;20761;-63
2023/07/09 04:54:44;;;;;;;3.85;2.75;;;;;;;;;;5034590;28;20056;-63
2023/07/09 04:57:10;;;;;;;3.03;2.83;;;;;;;;;;5032594;28;20071;-63
2023/07/09 04:59:36;;;;;;;2.97;2.78;;;;;;;;;;5035483;28;20075;-63
2023/07/09 05:02:03;;;;;;;2.38;2.17;;;;;;;;;;5030604;28;20393;-63
2023/07/09 05:04:29;;;;;;;2.75;2.55;;;;;;;;;;5035088;28;20072;-63
2023/07/09 05:06:56;;;;;;;2.95;2.67;;;;;;;;;;5041156;28;20484;-63
2023/07/09 05:09:23;;;;;;;4.32;2.70;;;;;;;;;;5040912;28;20033;-63
2023/07/09 05:11:50;;;;;;;3.22;2.92;;;;;;;;;;5038662;28;20120;-63
2023/07/09 05:14:17;;;;;;;2.00;1.90;;;;;;;;;;5036420;28;20124;-63
2023/07/09 05:16:43;;;;;;;3.40;3.10;;;;;;;;;;5040076;28;20056;-63
2023/07/09 05:19:09;;;;;;;2.33;2.17;;;;;;;;;;5039388;28;20442;-63
2023/07/09 05:21:35;;;;;;;2.65;2.45;;;;;;;;;;5041557;28;20073;-63
2023/07/09 05:24:01;;;;;;;2.50;2.30;;;;;;;;;;5038878;28;20452;-63
2023/07/09 05:26:27;;;;;;;2.45;2.25;;;;;;;;;;5034113;28;20045;-63
2023/07/09 05:28:53;;;;;;;1.75;1.65;;;;;;;;;;5037054;28;20044;-63
2023/07/09 05:31:19;;;;;;;3.17;2.97;;;;;;;;;;5037216;28;20063;-63
2023/07/09 05:33:46;;;;;;;2.65;2.45;;;;;;;;;;5035850;28;20041;-63
2023/07/09 05:36:15;;;;;;;2.95;2.75;;;;;;;;;;5034633;28;20071;-63
2023/07/09 05:38:46;;;;;;;3.00;2.80;;;;;;;;;;5032801;28;20130;-63
2023/07/09 05:41:12;;;;;;;2.70;2.50;;;;;;;;;;5037024;28;20055;-63
2023/07/09 05:43:38;;;;;;;3.17;2.88;;;;;;;;;;5035683;28;20045;-63
2023/07/09 05:46:05;;;;;;;3.13;2.90;;;;;;;;;;5039983;28;20033;-63
2023/07/09 05:48:33;;;;;;;2.50;2.30;;;;;;;;;;5034956;28;20049;-63
2023/07/09 05:50:59;;;;;;;2.10;2.00;;;;;;;;;;5035121;28;20052;-63
2023/07/09 05:53:25;;;;;;;2.30;2.10;;;;;;;;;;5038244;28;20041;-63
2023/07/09 05:55:55;;;;;;;2.97;2.55;;;;;;;;;;5036237;28;20610;-63
2023/07/09 05:58:21;;;;;;;2.58;2.33;;;;;;;;;;5037849;28;20064;-63
2023/07/09 06:00:53;;;;;;;2.40;2.20;;;;;;;;;;5038180;28;20120;-63
2023/07/09 06:03:19;;;;;;;3.22;2.75;;;;;;;;;;5038926;28;20416;-63
2023/07/09 06:05:45;;;;;;;2.38;2.17;;;;;;;;;;5036049;28;20044;-63
2023/07/09 06:08:12;;;;;;;3.78;2.67;;;;;;;;;;5033082;28;20047;-63
2023/07/09 06:10:41;;;;;;;2.50;2.30;;;;;;;;;;5037105;28;20048;-63
2023/07/09 06:13:08;;;;;;;2.80;2.60;;;;;;;;;;5034738;28;20091;-64
2023/07/09 06:15:34;;;;;;;2.40;2.20;;;;;;;;;;5034181;28;20049;-63
2023/07/09 06:18:00;;;;;;;2.22;2.03;;;;;;;;;;5036794;28;20040;-63
2023/07/09 06:20:26;;;;;;;2.50;2.30;;;;;;;;;;5036315;28;20046;-63
2023/07/09 06:22:52;;;;;;;2.10;2.00;;;;;;;;;;5034769;28;20066;-63
2023/07/09 06:25:18;;;;;;;2.20;2.00;;;;;;;;;;5038085;28;20041;-63
2023/07/09 06:27:43;;;;;;;2.00;1.90;;;;;;;;;;5035124;28;20084;-63
2023/07/09 06:30:10;;;;;;;2.10;1.90;;;;;;;;;;5035945;28;20547;-63
2023/07/09 06:32:36;;;;;;;2.72;2.45;;;;;;;;;;5035966;28;20045;-63
2023/07/09 06:35:02;;;;;;;2.17;1.98;;;;;;;;;;5033798;28;20128;-63
2023/07/09 06:37:28;;;;;;;1.92;1.83;;;;;;;;;;5036363;28;20123;-63
2023/07/09 06:39:54;;;;;;;2.47;2.03;;;;;;;;;;5030317;28;20160;-63
2023/07/09 06:42:20;;;;;;;1.85;1.75;;;;;;;;;;5032416;28;20049;-63
2023/07/09 06:44:46;;;;;;;2.38;2.17;;;;;;;;;;5038209;28;20095;-63
2023/07/09 06:47:12;;;;;;;2.28;2.08;;;;;;;;;;5033794;28;20037;-63
2023/07/09 06:49:38;;;;;;;2.25;2.03;;;;;;;;;;5033384;28;20052;-63
2023/07/09 06:52:04;;;;;;;1.90;1.77;;;;;;;;;;5038323;28;20045;-63
2023/07/09 06:54:30;;;;;;;1.75;1.63;;;;;;;;;;5037391;28;20424;-63
2023/07/09 06:56:56;;;;;;;2.35;2.20;;;;;;;;;;5035494;28;20037;-63
2023/07/09 06:59:22;;;;;;;2.08;1.88;;;;;;;;;;5038853;28;20072;-63
2023/07/09 07:01:48;;;;;;;2.83;2.28;;;;;;;;;;5036955;28;20073;-63
2023/07/09 07:04:15;;;;;;;2.60;2.13;;;;;;;;;;5035529;28;20087;-63
2023/07/09 07:06:41;;;;;;;2.08;1.95;;;;;;;;;;5034829;28;20502;-63
2023/07/09 07:09:08;;;;;;;3.08;2.78;;;;;;;;;;5034181;28;20044;-63
2023/07/09 07:11:34;;;;;;;2.45;2.25;;;;;;;;;;5034789;28;20063;-63
2023/07/09 07:14:00;;;;;;;2.50;2.30;;;;;;;;;;5034197;28;20045;-63
2023/07/09 07:16:26;;;;;;;2.63;2.38;;;;;;;;;;5032713;28;20036;-63
2023/07/09 07:18:52;;;;;;;2.28;2.17;;;;;;;;;;5033635;28;20079;-63
2023/07/09 07:21:18;;;;;;;2.00;1.90;;;;;;;;;;5030729;28;20037;-63
2023/07/09 07:23:44;;;;;;;1.80;1.70;;;;;;;;;;5033974;28;21528;-63
2023/07/09 07:26:10;;;;;;;2.47;2.28;;;;;;;;;;5035239;28;20084;-63
2023/07/09 07:28:36;;;;;;;2.47;2.28;;;;;;;;;;5031783;28;20048;-63
2023/07/09 07:31:04;;;;;;;2.40;2.20;;;;;;;;;;5033446;28;20041;-63
2023/07/09 07:33:30;;;;;;;2.53;2.00;;;;;;;;;;5031946;28;20045;-64
2023/07/09 07:35:57;;;;;;;1.98;1.77;;;;;;;;;;5037304;28;20037;-63
2023/07/09 07:38:23;;;;;;;1.90;1.80;;;;;;;;;;5035968;28;20044;-63
2023/07/09 07:40:49;;;;;;;1.98;1.88;;;;;;;;;;5031800;28;20037;-63
2023/07/09 07:43:15;;;;;;;2.22;2.03;;;;;;;;;;5032511;28;20550;-63
2023/07/09 07:45:44;;;;;;;4.10;2.53;;;;;;;;;;5031947;28;20037;-63
2023/07/09 07:48:11;;;;;;;2.53;2.33;;;;;;;;;;5028625;28;20090;-63
2023/07/09 07:50:38;;;;;;;2.45;2.25;;;;;;;;;;5032890;28;20046;-63
2023/07/09 07:53:04;;;;;;;2.75;2.40;;;;;;;;;;5033360;28;20087;-63
2023/07/09 07:55:30;;;;;;;3.70;3.00;;;;;;;;;;5028148;28;20543;-63
2023/07/09 07:57:57;;;;;;;3.33;2.95;;;;;;;;;;5030239;28;20040;-63
2023/07/09 08:00:23;;;;;;;3.67;3.35;;;;;;;;;;5029737;28;20675;-64
2023/07/09 08:02:49;;;;;;;3.55;3.22;;;;;;;;;;5035834;28;20083;-63
2023/07/09 08:05:15;;;;;;;2.72;2.53;;;;;;;;;;5035794;28;20041;-63
2023/07/09 08:07:41;;;;;;;2.40;2.20;;;;;;;;;;5036053;28;20398;-63
2023/07/09 08:10:07;;;;;;;3.35;3.08;;;;;;;;;;5039005;28;20136;-64
2023/07/09 08:12:33;;;;;;;3.35;3.00;;;;;;;;;;5033839;28;20512;-63
2023/07/09 08:14:59;;;;;;;2.80;2.60;;;;;;;;;;5032557;28;20049;-63
2023/07/09 08:17:25;;;;;;;2.38;1.88;;;;;;;;;;5035412;28;20094;-63
2023/07/09 08:19:54;;;;;;;2.53;2.33;;;;;;;;;;5029939;28;20493;-63
2023/07/09 08:22:21;;;;;;;2.17;2.00;;;;;;;;;;5033244;28;20038;-63
2023/07/09 08:24:48;;;;;;;1.90;1.80;;;;;;;;;;5036949;28;20045;-63
2023/07/09 08:27:14;;;;;;;1.80;1.70;;;;;;;;;;5029659;28;20041;-63
2023/07/09 08:29:41;;;;;;;1.80;1.70;;;;;;;;;;5032225;28;20046;-63
2023/07/09 08:32:07;;;;;;;1.67;1.40;;;;;;;;;;5033235;28;20056;-63
2023/07/09 08:34:33;;;;;;;2.38;2.17;;;;;;;;;;5031471;28;20037;-61
2023/07/09 08:36:59;;;;;;;1.38;1.27;;;;;;;;;;5033894;28;20068;-56
2023/07/09 08:39:25;;;;;;;1.63;1.52;;;;;;;;;;5029642;28;20045;-63
2023/07/09 08:42:13;;;;;;;1.73;1.63;;;;;;;;;;5046694;28;20044;-62
2023/07/09 08:45:02;;;;;;;1.60;1.50;;;;;;;;;;5044309;28;20048;-63
2023/07/09 08:47:28;;;;;;;1.60;1.50;;;;;;;;;;5033587;28;20049;-64
2023/07/09 08:49:57;;;;;;;1.55;1.45;;;;;;;;;;5043094;28;20044;-64
2023/07/09 08:52:23;;;;;;;1.30;1.20;;;;;;;;;;5044270;28;20747;-64
2023/07/09 08:54:50;;;;;;;2.35;1.70;;;;;;;;;;5037283;28;20128;-64
2023/07/09 08:57:19;;;;;;;1.85;1.75;;;;;;;;;;5038985;28;20063;-64
2023/07/09 08:59:46;;;;;;;1.88;1.77;;;;;;;;;;5045900;28;20493;-64
2023/07/09 09:02:26;;;;;;;1.52;1.42;;;;;;;;;;5037926;28;20059;-64
2023/07/09 09:04:53;;;;;;;1.98;1.48;;;;;;;;;;5044952;28;20059;-65
2023/07/09 09:07:24;;;;;;;1.90;1.50;;;;;;;;;;5039039;28;20037;-64
2023/07/09 09:09:54;;;;;;;1.45;1.35;;;;;;;;;;5042400;28;20045;-64
2023/07/09 09:12:23;;;;;;;1.25;1.15;;;;;;;;;;5039595;28;20100;-64
2023/07/09 09:14:55;;;;;;;1.58;1.48;;;;;;;;;;5045499;28;20128;-64
2023/07/09 09:17:21;;;;;;;;;;;;;;;;;;5047681;28;20474;-64
2023/07/09 09:20:01;;;;;;;2.20;2.05;;;;;;;;;;5038525;28;19964;-64
2023/07/09 09:22:46;;;;;;;1.70;1.58;;;;;;;;;;5027228;28;20099;-64
2023/07/09 09:25:15;;;;;;;1.83;1.73;;;;;;;;;;5026569;28;20103;-64
2023/07/09 09:27:41;;;;;;;1.83;1.73;;;;;;;;;;5027495;28;20449;-64
2023/07/09 09:30:14;;;;;;;2.58;2.38;;;;;;;;;;5039118;28;20041;-64
2023/07/09 09:32:44;;;;;;;2.40;2.20;;;;;;;;;;5042013;28;20041;-64
2023/07/09 09:35:14;;;;;;;1.80;1.70;;;;;;;;;;5041905;28;20138;-64
2023/07/09 09:37:40;;;;;;;1.70;1.60;;;;;;;;;;5040509;28;20067;-64
2023/07/09 09:40:09;;;;;;;2.15;2.05;;;;;;;;;;5029785;28;20056;-64
2023/07/09 09:42:35;;;;;;;2.50;2.30;;;;;;;;;;5039837;28;20042;-64
2023/07/09 09:45:02;;;;;;;2.60;2.40;;;;;;;;;;5025938;28;20045;-65
2023/07/09 09:47:28;;;;;;;3.08;2.78;;;;;;;;;;5031922;28;20532;-64
2023/07/09 09:49:55;;;;;;;2.72;2.47;;;;;;;;;;5037485;28;20391;-64
2023/07/09 09:52:26;;;;;;;2.85;2.15;;;;;;;;;;5043569;28;20041;-64
2023/07/09 09:54:56;;;;;;;1.92;1.83;;;;;;;;;;5040756;28;20043;-64
2023/07/09 09:57:23;;;;;;;1.85;1.52;;;;;;;;;;5034882;28;20603;-64
2023/07/09 09:59:50;;;;;;;1.90;1.80;;;;;;;;;;5029809;28;20529;-64
2023/07/09 10:02:20;;;;;;;1.70;1.60;;;;;;;;;;5027708;28;20100;-64
2023/07/09 10:04:46;;;;;;;2.33;2.13;;;;;;;;;;5030792;28;20038;-64
2023/07/09 10:07:22;;;;;;;2.05;1.77;;;;;;;;;;5031986;28;20049;-64
2023/07/09 10:09:50;;;;;;;1.77;1.67;;;;;;;;;;5026349;28;20053;-65
2023/07/09 10:12:16;;;;;;;3.00;2.80;;;;;;;;;;5028667;28;20053;-65
2023/07/09 10:14:42;;;;;;;4.32;3.45;;;;;;;;;;5031895;28;20044;-65
2023/07/09 10:17:17;;;;;;;3.38;3.08;;;;;;;;;;5027928;28;20048;-65
2023/07/09 10:19:46;;;;;;;2.58;2.38;;;;;;;;;;5028170;28;20045;-65
2023/07/09 10:22:21;;;;;;;2.70;2.50;;;;;;;;;;5037166;28;20129;-66
2023/07/09 10:24:47;;;;;;;2.35;2.20;;;;;;;;;;5035879;28;20343;-66
2023/07/09 10:27:17;;;;;;;2.03;1.92;;;;;;;;;;5031990;28;20045;-66
2023/07/09 10:29:49;;;;;;;2.40;2.20;;;;;;;;;;5036821;28;20045;-66
2023/07/09 10:32:21;;;;;;;1.90;1.80;;;;;;;;;;5032670;28;20157;-66
2023/07/09 10:35:00;;;;;;;2.70;2.38;;;;;;;;;;5032499;28;20495;-66
2023/07/09 10:37:46;;;;;;;1.70;1.60;;;;;;;;;;5036522;28;20180;-66
2023/07/09 10:40:14;;;;;;;1.60;1.50;;;;;;;;;;5036344;28;20052;-66
2023/07/09 10:42:40;;;;;;;2.05;1.85;;;;;;;;;;5037339;28;20041;-66
2023/07/09 10:45:12;;;;;;;2.10;1.90;;;;;;;;;;5028472;28;20037;-66
2023/07/09 10:47:44;;;;;;;2.33;1.38;;;;;;;;;;5034784;28;20041;-66
2023/07/09 10:50:15;;;;;;;1.90;1.80;;;;;;;;;;5032986;28;20092;-65
2023/07/09 10:52:44;;;;;;;1.83;1.73;;;;;;;;;;5038810;28;20053;-65
2023/07/09 10:55:16;;;;;;;2.00;1.90;;;;;;;;;;5028467;28;20044;-65
2023/07/09 10:58:01;;;;;;;3.72;2.22;;;;;;;;;;5039796;28;20037;-65
2023/07/09 11:00:34;;;;;;;2.45;2.25;;;;;;;;;;5034729;28;20147;-65
2023/07/09 11:03:04;;;;;;;1.83;1.73;;;;;;;;;;5033573;28;20036;-65
2023/07/09 11:05:30;;;;;;;1.85;1.75;;;;;;;;;;5024665;28;20041;-65
2023/07/09 11:08:17;;;;;;;1.80;1.70;;;;;;;;;;5026481;28;20036;-65
2023/07/09 11:10:50;;;;;;;1.60;1.50;;;;;;;;;;5032735;28;20544;-66
2023/07/09 11:13:20;;;;;;;1.67;1.58;;;;;;;;;;5029220;28;20045;-65
2023/07/09 11:15:48;;;;;;;2.50;2.30;;;;;;;;;;5033978;28;20032;-65
2023/07/09 11:18:21;;;;;;;2.30;2.10;;;;;;;;;;5030434;28;20133;-65
2023/07/09 11:20:47;;;;;;;2.13;1.92;;;;;;;;;;5033950;28;20120;-65
2023/07/09 11:23:21;;;;;;;2.30;2.00;;;;;;;;;;5039905;28;20124;-65
2023/07/09 11:26:01;;;;;;;2.05;1.95;;;;;;;;;;5029555;28;20045;-66
2023/07/09 11:28:38;;;;;;;2.00;1.90;;;;;;;;;;5041189;28;20485;-66
2023/07/09 11:31:08;;;;;;;2.40;2.20;;;;;;;;;;5039597;28;20860;-65
2023/07/09 11:33:34;;;;;;;2.20;2.05;;;;;;;;;;5042005;28;20071;-63
2023/07/09 11:36:08;;;;;;;2.38;1.80;;;;;;;;;;5043449;28;20128;-65
2023/07/09 11:38:42;;;;;;;3.85;2.95;;;;;;;;;;5035862;28;20139;-65
2023/07/09 11:41:27;;;;;;;3.15;2.28;;;;;;;;;;5028551;28;20084;-65
2023/07/09 11:43:53;;;;;;;2.05;1.95;;;;;;;;;;5035791;28;20037;-65
2023/07/09 11:46:22;;;;;;;2.38;2.05;;;;;;;;;;5035535;28;20044;-65
2023/07/09 11:48:49;;;;;;;1.70;1.60;;;;;;;;;;5041620;28;20566;-65
2023/07/09 11:51:18;;;;;;;1.75;1.65;;;;;;;;;;5030259;28;20409;-65
2023/07/09 11:53:47;;;;;;;2.42;2.20;;;;;;;;;;5037567;28;20072;-65
2023/07/09 11:56:13;;;;;;;2.30;2.10;;;;;;;;;;5029763;28;20103;-65
2023/07/09 11:58:48;;;;;;;2.30;2.10;;;;;;;;;;5037561;28;20045;-65
2023/07/09 12:01:17;;;;;;;2.05;1.95;;;;;;;;;;5031642;28;20161;-65
2023/07/09 12:03:44;;;;;;;2.13;1.92;;;;;;;;;;5041723;28;20796;-65
2023/07/09 12:06:22;;;;;;;2.63;2.42;;;;;;;;;;5031184;28;20060;-65
2023/07/09 12:08:48;;;;;;;2.33;2.00;;;;;;;;;;5030745;28;20159;-65
2023/07/09 12:11:25;;;;;;;2.08;1.98;;;;;;;;;;5033144;28;20054;-65
2023/07/09 12:13:51;;;;;;;2.22;2.13;;;;;;;;;;5036225;28;20103;-65
2023/07/09 12:16:23;;;;;;;2.08;1.95;;;;;;;;;;5033051;28;20092;-65
2023/07/09 12:18:50;;;;;;;1.83;1.73;;;;;;;;;;5045620;28;20041;-64
2023/07/09 12:21:16;;;;;;;1.88;1.77;;;;;;;;;;5039875;28;20049;-64
2023/07/09 12:23:42;;;;;;;1.83;1.73;;;;;;;;;;5035826;28;20444;-64
2023/07/09 12:26:13;;;;;;;2.70;2.50;;;;;;;;;;5040483;28;20043;-64
2023/07/09 12:28:39;;;;;;;2.38;2.17;;;;;;;;;;5036236;28;20450;-64
2023/07/09 12:31:05;;;;;;;2.38;2.17;;;;;;;;;;5034994;28;20088;-64
2023/07/09 12:33:31;;;;;;;2.05;1.83;;;;;;;;;;5038606;28;20047;-64
2023/07/09 12:35:59;;;;;;;2.13;1.65;;;;;;;;;;5031935;28;20037;-64
2023/07/09 12:38:26;;;;;;;2.67;2.10;;;;;;;;;;5037795;28;20114;-64
2023/07/09 12:40:53;;;;;;;2.40;2.20;;;;;;;;;;5033384;28;20394;-64
2023/07/09 12:43:23;;;;;;;2.25;2.08;;;;;;;;;;5035553;28;20112;-64
2023/07/09 12:45:49;;;;;;;2.60;2.40;;;;;;;;;;5034608;28;20048;-64
2023/07/09 12:48:15;;;;;;;2.60;2.40;;;;;;;;;;5033654;28;20119;-65
2023/07/09 12:50:41;;;;;;;2.45;2.22;;;;;;;;;;5039363;28;20731;-64
2023/07/09 12:53:15;;;;;;;2.00;1.90;;;;;;;;;;5039559;28;20453;-64
2023/07/09 12:55:44;;;;;;;2.33;1.85;;;;;;;;;;5038933;28;20049;-64
2023/07/09 12:58:19;;;;;;;2.63;1.88;;;;;;;;;;5039858;28;20041;-64
2023/07/09 13:00:51;;;;;;;1.85;1.75;;;;;;;;;;5035121;28;20060;-64
2023/07/09 13:03:18;;;;;;;1.75;1.65;;;;;;;;;;5036485;28;20056;-65
2023/07/09 13:05:54;;;;;;;2.00;1.80;;;;;;;;;;5038126;28;20137;-64
2023/07/09 13:08:21;;;;;;;1.55;1.45;;;;;;;;;;5034323;28;20061;-64
2023/07/09 13:10:50;;;;;;;1.48;1.35;;;;;;;;;;5039302;28;20149;-64
2023/07/09 13:13:17;;;;;;;1.40;1.30;;;;;;;;;;5032650;28;20076;-64
2023/07/09 13:15:45;;;;;;;1.42;1.33;;;;;;;;;;5034176;28;20044;-65
2023/07/09 13:18:12;;;;;;;1.70;1.60;;;;;;;;;;5043615;28;20042;-64
2023/07/09 13:20:40;;;;;;;0.90;0.90;;;;;;;;;;5028365;28;20045;-64
2023/07/09 13:23:14;;;;;;;1.15;1.00;;;;;;;;;;5036284;28;20433;-64
2023/07/09 13:25:41;;;;;;;1.55;1.45;;;;;;;;;;5041045;28;20037;-64
2023/07/09 13:28:16;;;;;;;1.70;1.60;;;;;;;;;;5033733;28;20893;-64
2023/07/09 13:30:42;;;;;;;1.13;1.02;;;;;;;;;;5037290;28;20513;-64
2023/07/09 13:33:09;;;;;;;1.40;1.30;;;;;;;;;;5036281;28;20041;-64
2023/07/09 13:35:36;;;;;;;1.48;1.38;;;;;;;;;;5034725;28;20041;-64
2023/07/09 13:38:04;;;;;;;1.80;1.50;;;;;;;;;;5033347;28;20049;-64
2023/07/09 13:40:30;;;;;;;1.75;1.65;;;;;;;;;;5030626;28;20053;-65
2023/07/09 13:42:56;;;;;;;2.08;1.95;;;;;;;;;;5035154;28;20047;-65
2023/07/09 13:45:24;;;;;;;2.42;1.80;;;;;;;;;;5035563;28;20037;-64
2023/07/09 13:47:51;;;;;;;1.67;1.58;;;;;;;;;;5041563;28;20041;-64
2023/07/09 13:50:18;;;;;;;1.60;1.50;;;;;;;;;;5036220;28;20037;-64
2023/07/09 13:52:44;;;;;;;1.80;1.70;;;;;;;;;;5029959;28;20411;-64
2023/07/09 13:55:18;;;;;;;2.00;1.75;;;;;;;;;;5026742;28;20049;-64
2023/07/09 13:57:44;;;;;;;1.75;1.60;;;;;;;;;;5040110;28;20041;-64
2023/07/09 14:00:11;;;;;;;1.40;1.30;;;;;;;;;;5028942;28;20060;-64
2023/07/09 14:02:38;;;;;;;2.88;2.35;;;;;;;;;;5039635;28;20694;-64
2023/07/09 14:05:06;;;;;;;2.03;1.92;;;;;;;;;;5034779;28;20045;-64
2023/07/09 14:07:36;;;;;;;2.53;2.33;;;;;;;;;;5040659;28;20127;-65
2023/07/09 14:10:03;;;;;;;2.78;2.58;;;;;;;;;;5034890;28;20539;-64
2023/07/09 14:12:30;;;;;;;2.00;1.90;;;;;;;;;;5036576;28;20073;-64
2023/07/09 14:14:58;;;;;;;2.08;1.92;;;;;;;;;;5042433;28;20088;-64
2023/07/09 14:17:25;;;;;;;2.17;2.00;;;;;;;;;;5042341;28;20064;-64
2023/07/09 14:19:52;;;;;;;1.85;1.75;;;;;;;;;;5044556;28;20536;-64
2023/07/09 14:22:34;;;;;;;2.63;2.30;;;;;;;;;;5034452;28;20089;-64
2023/07/09 14:25:00;;;;;;;2.53;2.20;;;;;;;;;;5038992;28;20060;-64
2023/07/09 14:27:27;;;;;;;2.15;2.00;;;;;;;;;;5039065;28;20098;-64
2023/07/09 14:29:54;;;;;;;2.13;2.03;;;;;;;;;;5034316;28;20481;-64
2023/07/09 14:32:32;;;;;;;2.65;2.35;;;;;;;;;;5037234;28;20039;-64
2023/07/09 14:34:58;;;;;;;1.92;1.83;;;;;;;;;;5042253;28;20065;-64
2023/07/09 14:37:24;;;;;;;1.85;1.73;;;;;;;;;;5039724;28;20040;-64
2023/07/09 14:39:50;;;;;;;1.45;1.35;;;;;;;;;;5039570;28;20043;-64
2023/07/09 14:42:16;;;;;;;1.48;1.38;;;;;;;;;;5037937;28;20455;-65
2023/07/09 14:44:42;;;;;;;1.40;1.30;;;;;;;;;;5030520;28;20076;-65
2023/07/09 14:47:14;;;;;;;2.72;1.60;;;;;;;;;;5039923;28;20080;-65